createdAt,value
2018-09-12T00:00:05.728Z,5.97
2018-09-12T00:00:36.863Z,6.37
2018-09-12T00:01:08.091Z,6.40
2018-09-12T00:01:39.288Z,6.10
2018-09-12T00:02:10.383Z,6.10
2018-09-12T00:02:41.597Z,5.90
2018-09-12T00:03:12.769Z,6.13
2018-09-12T00:03:43.914Z,6.20
2018-09-12T00:04:15.047Z,6.23
2018-09-12T00:04:46.191Z,5.97
2018-09-12T00:05:17.294Z,6.00
2018-09-12T00:05:48.408Z,6.10
2018-09-12T00:06:19.537Z,6.03
2018-09-12T00:06:50.706Z,5.80
2018-09-12T00:07:21.832Z,5.70
2018-09-12T00:07:52.961Z,6.50
2018-09-12T00:08:24.084Z,5.93
2018-09-12T00:08:55.196Z,6.03
2018-09-12T00:09:26.446Z,6.13
2018-09-12T00:09:57.592Z,5.70
2018-09-12T00:10:28.772Z,6.07
2018-09-12T00:10:59.952Z,5.83
2018-09-12T00:11:31.116Z,6.00
2018-09-12T00:12:02.296Z,6.60
2018-09-12T00:12:33.388Z,5.63
2018-09-12T00:13:04.514Z,5.80
2018-09-12T00:13:35.650Z,6.10
2018-09-12T00:14:06.768Z,5.60
2018-09-12T00:14:37.876Z,6.47
2018-09-12T00:15:08.992Z,6.90
2018-09-12T00:15:40.176Z,6.30
2018-09-12T00:16:11.304Z,6.57
2018-09-12T00:16:42.481Z,6.43
2018-09-12T00:17:13.653Z,6.77
2018-09-12T00:17:44.763Z,6.00
2018-09-12T00:18:15.894Z,6.30
2018-09-12T00:18:47.024Z,6.20
2018-09-12T00:19:18.168Z,6.23
2018-09-12T00:19:49.310Z,5.87
2018-09-12T00:20:20.437Z,6.33
2018-09-12T00:20:51.566Z,6.13
2018-09-12T00:21:22.744Z,6.30
2018-09-12T00:21:53.856Z,5.83
2018-09-12T00:22:25.008Z,6.40
2018-09-12T00:22:56.114Z,6.63
2018-09-12T00:23:27.242Z,6.50
2018-09-12T00:23:58.466Z,6.30
2018-09-12T00:24:29.572Z,5.73
2018-09-12T00:25:00.697Z,6.07
2018-09-12T00:25:31.840Z,5.80
2018-09-12T00:26:03.066Z,6.67
2018-09-12T00:26:34.189Z,6.27
2018-09-12T00:27:05.343Z,5.95
2018-09-12T00:27:36.573Z,6.03
2018-09-12T00:28:07.703Z,6.17
2018-09-12T00:28:38.909Z,6.50
2018-09-12T00:29:10.069Z,6.13
2018-09-12T00:29:41.187Z,5.93
2018-09-12T00:30:12.320Z,6.37
2018-09-12T00:30:43.471Z,6.27
2018-09-12T00:31:14.617Z,5.97
2018-09-12T00:31:45.738Z,5.93
2018-09-12T00:32:16.877Z,5.90
2018-09-12T00:32:47.995Z,5.90
2018-09-12T00:33:19.218Z,5.80
2018-09-12T00:33:50.343Z,6.00
2018-09-12T00:34:21.439Z,6.00
2018-09-12T00:34:52.604Z,5.67
2018-09-12T00:35:23.715Z,6.17
2018-09-12T00:35:54.865Z,6.17
2018-09-12T00:36:26.066Z,6.17
2018-09-12T00:36:57.246Z,6.28
2018-09-12T00:37:28.380Z,6.87
2018-09-12T00:37:59.502Z,6.33
2018-09-12T00:38:30.666Z,5.87
2018-09-12T00:39:01.825Z,6.60
2018-09-12T00:39:32.967Z,6.17
2018-09-12T00:40:04.088Z,6.20
2018-09-12T00:40:35.188Z,6.60
2018-09-12T00:41:06.303Z,5.87
2018-09-12T00:41:37.462Z,6.47
2018-09-12T00:42:08.584Z,5.73
2018-09-12T00:42:39.740Z,5.70
2018-09-12T00:43:10.920Z,5.93
2018-09-12T00:43:42.105Z,6.30
2018-09-12T00:44:13.254Z,6.03
2018-09-12T00:44:44.369Z,6.00
2018-09-12T00:45:15.481Z,6.07
2018-09-12T00:45:46.615Z,6.00
2018-09-12T00:46:17.841Z,6.20
2018-09-12T00:46:49.035Z,6.30
2018-09-12T00:47:20.144Z,6.23
2018-09-12T00:47:51.251Z,5.90
2018-09-12T00:48:22.373Z,6.00
2018-09-12T00:48:53.521Z,6.40
2018-09-12T00:49:24.640Z,6.13
2018-09-12T00:49:55.798Z,6.40
2018-09-12T00:50:26.911Z,6.13
2018-09-12T00:50:58.086Z,6.03
2018-09-12T00:51:29.225Z,5.87
2018-09-12T00:52:00.419Z,6.20
2018-09-12T00:52:31.576Z,6.63
2018-09-12T00:53:02.738Z,6.47
2018-09-12T00:53:33.863Z,6.00
2018-09-12T00:54:04.984Z,6.60
2018-09-12T00:54:36.138Z,6.33
2018-09-12T00:55:07.307Z,6.23
2018-09-12T00:55:38.473Z,6.17
2018-09-12T00:56:09.586Z,5.83
2018-09-12T00:56:40.748Z,5.83
2018-09-12T00:57:11.891Z,6.50
2018-09-12T00:57:43.096Z,6.67
2018-09-12T00:58:14.325Z,5.83
2018-09-12T00:58:45.604Z,6.30
2018-09-12T00:59:16.755Z,5.87
2018-09-12T00:59:47.906Z,5.70
2018-09-12T01:00:19.033Z,6.00
2018-09-12T01:00:50.174Z,6.10
2018-09-12T01:01:21.307Z,5.80
2018-09-12T01:01:52.497Z,6.17
2018-09-12T01:02:23.622Z,6.20
2018-09-12T01:02:54.808Z,6.07
2018-09-12T01:03:25.958Z,5.87
2018-09-12T01:03:57.144Z,5.63
2018-09-12T01:04:28.297Z,6.27
2018-09-12T01:04:59.438Z,6.20
2018-09-12T01:05:30.570Z,5.77
2018-09-12T01:06:01.706Z,6.03
2018-09-12T01:06:32.826Z,6.13
2018-09-12T01:07:04.004Z,6.20
2018-09-12T01:07:35.173Z,6.20
2018-09-12T01:08:06.345Z,5.57
2018-09-12T01:08:37.460Z,5.90
2018-09-12T01:09:08.633Z,6.10
2018-09-12T01:09:39.878Z,5.97
2018-09-12T01:10:11.009Z,6.60
2018-09-12T01:10:42.210Z,6.50
2018-09-12T01:11:13.322Z,6.03
2018-09-12T01:11:44.443Z,6.30
2018-09-12T01:12:15.553Z,6.63
2018-09-12T01:12:46.680Z,5.67
2018-09-12T01:13:17.788Z,5.90
2018-09-12T01:13:48.884Z,6.10
2018-09-12T01:14:20.050Z,5.60
2018-09-12T01:14:51.203Z,6.47
2018-09-12T01:15:22.310Z,6.67
2018-09-12T01:15:53.458Z,6.33
2018-09-12T01:16:24.581Z,6.47
2018-09-12T01:16:55.708Z,5.97
2018-09-12T01:17:26.806Z,6.17
2018-09-12T01:17:57.948Z,6.20
2018-09-12T01:18:29.075Z,5.70
2018-09-12T01:19:00.238Z,5.90
2018-09-12T01:19:31.383Z,6.23
2018-09-12T01:20:02.593Z,6.40
2018-09-12T01:20:33.734Z,5.70
2018-09-12T01:21:04.887Z,5.87
2018-09-12T01:21:35.991Z,6.23
2018-09-12T01:22:07.116Z,6.50
2018-09-12T01:22:38.281Z,5.87
2018-09-12T01:23:09.419Z,6.03
2018-09-12T01:23:40.612Z,6.17
2018-09-12T01:24:11.725Z,6.27
2018-09-12T01:24:42.847Z,6.13
2018-09-12T01:25:14.001Z,6.20
2018-09-12T01:25:45.101Z,6.30
2018-09-12T01:26:16.297Z,5.90
2018-09-12T01:26:47.468Z,6.10
2018-09-12T01:27:18.624Z,6.33
2018-09-12T01:27:49.799Z,6.53
2018-09-12T01:28:20.952Z,6.40
2018-09-12T01:28:52.096Z,5.97
2018-09-12T01:29:23.243Z,6.20
2018-09-12T01:29:54.354Z,5.93
2018-09-12T01:30:25.494Z,6.03
2018-09-12T01:30:56.639Z,5.57
2018-09-12T01:31:27.772Z,6.10
2018-09-12T01:31:58.945Z,6.23
2018-09-12T01:32:30.148Z,5.97
2018-09-12T01:33:01.325Z,6.20
2018-09-12T01:33:32.508Z,6.30
2018-09-12T01:34:03.692Z,6.07
2018-09-12T01:34:34.808Z,6.13
2018-09-12T01:35:05.922Z,5.93
2018-09-12T01:35:37.036Z,5.53
2018-09-12T01:36:08.208Z,5.33
2018-09-12T01:36:39.316Z,6.37
2018-09-12T01:37:10.490Z,6.17
2018-09-12T01:37:41.644Z,6.20
2018-09-12T01:38:12.856Z,5.63
2018-09-12T01:38:44.009Z,6.27
2018-09-12T01:39:15.249Z,6.57
2018-09-12T01:39:46.399Z,5.80
2018-09-12T01:40:17.569Z,5.50
2018-09-12T01:40:48.695Z,5.90
2018-09-12T01:41:19.974Z,5.90
2018-09-12T01:41:51.079Z,6.47
2018-09-12T01:42:22.284Z,6.53
2018-09-12T01:42:53.453Z,6.20
2018-09-12T01:43:24.599Z,6.03
2018-09-12T01:43:55.780Z,6.70
2018-09-12T01:44:26.907Z,5.80
2018-09-12T01:44:58.011Z,5.97
2018-09-12T01:45:29.119Z,5.93
2018-09-12T01:46:00.243Z,5.43
2018-09-12T01:46:31.400Z,6.20
2018-09-12T01:47:02.558Z,6.20
2018-09-12T01:47:33.668Z,6.37
2018-09-12T01:48:04.776Z,6.23
2018-09-12T01:48:35.996Z,6.27
2018-09-12T01:49:07.160Z,5.90
2018-09-12T01:49:38.284Z,5.70
2018-09-12T01:50:09.388Z,6.47
2018-09-12T01:50:40.549Z,6.07
2018-09-12T01:51:11.668Z,5.63
2018-09-12T01:51:42.826Z,5.93
2018-09-12T01:52:14.002Z,6.23
2018-09-12T01:52:45.180Z,5.97
2018-09-12T01:53:16.288Z,6.07
2018-09-12T01:53:47.411Z,6.50
2018-09-12T01:54:18.590Z,5.87
2018-09-12T01:54:49.744Z,6.20
2018-09-12T01:55:20.927Z,6.17
2018-09-12T01:55:52.076Z,5.90
2018-09-12T01:56:23.194Z,6.13
2018-09-12T01:56:54.388Z,6.20
2018-09-12T01:57:25.532Z,5.97
2018-09-12T01:57:56.705Z,6.30
2018-09-12T01:58:27.895Z,6.20
2018-09-12T01:58:59.010Z,6.37
2018-09-12T01:59:30.198Z,5.97
2018-09-12T02:00:01.326Z,5.90
2018-09-12T02:00:32.495Z,6.17
2018-09-12T02:01:03.603Z,6.20
2018-09-12T02:01:34.730Z,6.70
2018-09-12T02:02:05.825Z,6.10
2018-09-12T02:02:36.931Z,6.33
2018-09-12T02:03:08.095Z,6.03
2018-09-12T02:03:39.198Z,6.20
2018-09-12T02:04:10.316Z,6.50
2018-09-12T02:04:41.441Z,5.93
2018-09-12T02:05:12.574Z,6.27
2018-09-12T02:05:43.689Z,5.80
2018-09-12T02:06:14.804Z,5.97
2018-09-12T02:06:45.938Z,6.17
2018-09-12T02:07:17.119Z,6.10
2018-09-12T02:07:48.229Z,6.90
2018-09-12T02:08:19.458Z,6.60
2018-09-12T02:08:50.642Z,6.20
2018-09-12T02:09:21.834Z,6.43
2018-09-12T02:09:52.948Z,5.93
2018-09-12T02:10:24.096Z,6.43
2018-09-12T02:10:55.284Z,6.33
2018-09-12T02:11:26.387Z,6.40
2018-09-12T02:11:57.491Z,6.23
2018-09-12T02:12:28.587Z,6.13
2018-09-12T02:12:59.705Z,6.20
2018-09-12T02:13:30.916Z,6.37
2018-09-12T02:14:02.027Z,6.30
2018-09-12T02:14:33.125Z,6.30
2018-09-12T02:15:04.247Z,6.87
2018-09-12T02:15:35.376Z,6.30
2018-09-12T02:16:06.519Z,6.43
2018-09-12T02:16:37.639Z,5.53
2018-09-12T02:17:08.840Z,6.10
2018-09-12T02:17:40.006Z,6.20
2018-09-12T02:18:11.111Z,6.50
2018-09-12T02:18:42.233Z,6.57
2018-09-12T02:19:13.345Z,6.43
2018-09-12T02:19:44.507Z,6.50
2018-09-12T02:20:15.627Z,6.13
2018-09-12T02:20:46.738Z,6.67
2018-09-12T02:21:17.862Z,6.37
2018-09-12T02:21:49.046Z,6.30
2018-09-12T02:22:20.216Z,6.20
2018-09-12T02:22:51.346Z,6.70
2018-09-12T02:23:22.509Z,6.53
2018-09-12T02:23:53.666Z,6.73
2018-09-12T02:24:24.948Z,6.60
2018-09-12T02:24:56.078Z,6.60
2018-09-12T02:25:27.177Z,6.40
2018-09-12T02:25:58.278Z,6.67
2018-09-12T02:26:29.472Z,6.63
2018-09-12T02:27:00.591Z,6.80
2018-09-12T02:27:31.718Z,6.90
2018-09-12T02:28:02.851Z,6.43
2018-09-12T02:28:33.968Z,7.05
2018-09-12T02:29:05.148Z,6.90
2018-09-12T02:29:36.331Z,7.67
2018-09-12T02:30:07.448Z,6.53
2018-09-12T02:30:38.688Z,6.93
2018-09-12T02:31:09.931Z,8.05
2018-09-12T02:31:41.048Z,6.57
2018-09-12T02:32:12.163Z,7.33
2018-09-12T02:32:43.288Z,6.90
2018-09-12T02:33:14.399Z,7.23
2018-09-12T02:33:45.561Z,7.17
2018-09-12T02:34:16.676Z,7.40
2018-09-12T02:34:47.819Z,7.17
2018-09-12T02:35:18.932Z,6.97
2018-09-12T02:35:50.105Z,6.92
2018-09-12T02:36:21.332Z,7.90
2018-09-12T02:36:52.482Z,6.97
2018-09-12T02:37:23.600Z,7.43
2018-09-12T02:37:54.720Z,7.17
2018-09-12T02:38:25.903Z,7.72
2018-09-12T02:38:57.123Z,7.17
2018-09-12T02:39:28.280Z,7.33
2018-09-12T02:39:59.433Z,7.33
2018-09-12T02:40:30.623Z,7.35
2018-09-12T02:41:01.794Z,6.95
2018-09-12T02:41:32.923Z,7.25
2018-09-12T02:42:04.085Z,7.42
2018-09-12T02:42:35.206Z,6.53
2018-09-12T02:43:06.384Z,6.78
2018-09-12T02:43:37.504Z,6.97
2018-09-12T02:44:08.668Z,7.30
2018-09-12T02:44:39.808Z,6.72
2018-09-12T02:45:11.024Z,7.00
2018-09-12T02:45:42.149Z,7.30
2018-09-12T02:46:13.282Z,7.60
2018-09-12T02:46:44.518Z,7.10
2018-09-12T02:47:15.685Z,7.47
2018-09-12T02:47:46.864Z,7.10
2018-09-12T02:48:18.039Z,7.33
2018-09-12T02:48:49.150Z,7.27
2018-09-12T02:49:20.360Z,7.40
2018-09-12T02:49:51.590Z,7.58
2018-09-12T02:50:22.694Z,7.03
2018-09-12T02:50:53.806Z,7.30
2018-09-12T02:51:24.958Z,7.37
2018-09-12T02:51:56.148Z,7.00
2018-09-12T02:52:27.290Z,6.92
2018-09-12T02:52:58.439Z,7.55
2018-09-12T02:53:29.613Z,7.53
2018-09-12T02:54:00.736Z,7.05
2018-09-12T02:54:31.856Z,6.90
2018-09-12T02:55:03.062Z,7.33
2018-09-12T02:55:34.236Z,7.00
2018-09-12T02:56:05.367Z,7.53
2018-09-12T02:56:36.509Z,7.22
2018-09-12T02:57:07.618Z,6.62
2018-09-12T02:57:38.753Z,7.42
2018-09-12T02:58:09.866Z,7.33
2018-09-12T02:58:41.061Z,6.83
2018-09-12T02:59:12.236Z,7.72
2018-09-12T02:59:43.432Z,7.60
2018-09-12T03:00:14.550Z,7.60
2018-09-12T03:00:45.727Z,7.08
2018-09-12T03:01:16.922Z,7.50
2018-09-12T03:01:48.040Z,7.20
2018-09-12T03:02:19.255Z,7.30
2018-09-12T03:02:50.386Z,6.92
2018-09-12T03:03:21.509Z,7.80
2018-09-12T03:03:52.724Z,7.17
2018-09-12T03:04:23.915Z,7.45
2018-09-12T03:04:55.045Z,7.83
2018-09-12T03:05:26.160Z,7.33
2018-09-12T03:05:57.320Z,7.50
2018-09-12T03:06:28.475Z,7.55
2018-09-12T03:06:59.602Z,7.53
2018-09-12T03:07:30.697Z,6.83
2018-09-12T03:08:01.856Z,7.67
2018-09-12T03:08:32.984Z,7.70
2018-09-12T03:09:04.145Z,7.30
2018-09-12T03:09:35.317Z,8.10
2018-09-12T03:10:06.444Z,6.65
2018-09-12T03:10:37.550Z,6.80
2018-09-12T03:11:08.719Z,7.33
2018-09-12T03:11:39.890Z,7.00
2018-09-12T03:12:11.087Z,7.45
2018-09-12T03:12:42.195Z,6.95
2018-09-12T03:13:13.331Z,7.47
2018-09-12T03:13:44.490Z,7.05
2018-09-12T03:14:15.652Z,7.42
2018-09-12T03:14:46.882Z,6.92
2018-09-12T03:15:18.007Z,7.30
2018-09-12T03:15:49.142Z,7.20
2018-09-12T03:16:20.264Z,7.40
2018-09-12T03:16:51.449Z,7.12
2018-09-12T03:17:22.640Z,7.33
2018-09-12T03:17:53.769Z,7.08
2018-09-12T03:18:24.885Z,7.53
2018-09-12T03:18:56.047Z,7.42
2018-09-12T03:19:27.169Z,7.30
2018-09-12T03:19:58.294Z,7.00
2018-09-12T03:20:29.485Z,7.22
2018-09-12T03:21:00.758Z,7.00
2018-09-12T03:21:31.918Z,7.40
2018-09-12T03:22:03.086Z,7.25
2018-09-12T03:22:34.223Z,7.17
2018-09-12T03:23:05.360Z,7.70
2018-09-12T03:23:36.551Z,7.42
2018-09-12T03:24:07.672Z,7.25
2018-09-12T03:24:38.834Z,6.80
2018-09-12T03:25:10.024Z,7.30
2018-09-12T03:25:41.208Z,7.15
2018-09-12T03:26:12.349Z,7.20
2018-09-12T03:26:43.458Z,7.25
2018-09-12T03:27:14.709Z,7.05
2018-09-12T03:27:45.844Z,7.30
2018-09-12T03:28:16.965Z,7.50
2018-09-12T03:28:48.120Z,7.75
2018-09-12T03:29:19.296Z,7.37
2018-09-12T03:29:50.438Z,7.75
2018-09-12T03:30:21.547Z,7.12
2018-09-12T03:30:52.680Z,6.95
2018-09-12T03:31:23.823Z,7.50
2018-09-12T03:31:54.934Z,7.37
2018-09-12T03:32:26.114Z,7.85
2018-09-12T03:32:57.239Z,7.22
2018-09-12T03:33:28.407Z,7.22
2018-09-12T03:33:59.556Z,7.35
2018-09-12T03:34:30.728Z,7.30
2018-09-12T03:35:01.906Z,8.10
2018-09-12T03:35:33.076Z,7.05
2018-09-12T03:36:04.196Z,7.28
2018-09-12T03:36:35.342Z,7.80
2018-09-12T03:37:06.475Z,8.83
2018-09-12T03:37:37.630Z,7.65
2018-09-12T03:38:08.758Z,7.97
2018-09-12T03:38:39.878Z,7.78
2018-09-12T03:39:11.032Z,7.85
2018-09-12T03:39:42.170Z,7.58
2018-09-12T03:40:13.313Z,7.85
2018-09-12T03:40:44.486Z,8.35
2018-09-12T03:41:15.598Z,8.45
2018-09-12T03:41:46.698Z,7.72
2018-09-12T03:42:17.879Z,7.75
2018-09-12T03:42:52.688Z,8.10
2018-09-12T03:43:23.813Z,8.35
2018-09-12T03:43:54.920Z,7.87
2018-09-12T03:44:26.065Z,7.90
2018-09-12T03:44:57.191Z,8.33
2018-09-12T03:45:28.364Z,8.70
2018-09-12T03:45:59.506Z,8.08
2018-09-12T03:46:30.732Z,8.50
2018-09-12T03:47:01.881Z,7.83
2018-09-12T03:47:33.071Z,8.40
2018-09-12T03:48:04.261Z,8.48
2018-09-12T03:48:35.383Z,7.70
2018-09-12T03:49:06.512Z,7.90
2018-09-12T03:49:37.634Z,7.95
2018-09-12T03:50:08.775Z,8.00
2018-09-12T03:50:39.902Z,7.67
2018-09-12T03:51:11.056Z,7.60
2018-09-12T03:51:42.176Z,7.65
2018-09-12T03:52:13.333Z,7.40
2018-09-12T03:52:44.495Z,6.87
2018-09-12T03:53:15.676Z,7.12
2018-09-12T03:53:46.828Z,7.45
2018-09-12T03:54:18.005Z,8.13
2018-09-12T03:54:49.115Z,8.03
2018-09-12T03:55:20.337Z,7.35
2018-09-12T03:55:51.477Z,7.90
2018-09-12T03:56:22.611Z,7.95
2018-09-12T03:56:53.723Z,8.20
2018-09-12T03:57:24.881Z,7.62
2018-09-12T03:57:55.981Z,7.60
2018-09-12T03:58:27.090Z,7.70
2018-09-12T03:58:58.207Z,7.45
2018-09-12T03:59:29.319Z,8.03
2018-09-12T04:00:00.431Z,7.67
2018-09-12T04:00:31.602Z,7.22
2018-09-12T04:01:02.772Z,8.00
2018-09-12T04:01:33.902Z,7.83
2018-09-12T04:02:05.062Z,8.00
2018-09-12T04:02:36.312Z,7.62
2018-09-12T04:03:07.479Z,7.92
2018-09-12T04:03:38.595Z,7.80
2018-09-12T04:04:09.770Z,7.50
2018-09-12T04:04:40.882Z,7.78
2018-09-12T04:05:12.031Z,7.08
2018-09-12T04:05:43.170Z,7.70
2018-09-12T04:06:14.285Z,7.70
2018-09-12T04:06:45.400Z,7.15
2018-09-12T04:07:16.585Z,7.58
2018-09-12T04:07:47.752Z,7.10
2018-09-12T04:08:18.892Z,7.33
2018-09-12T04:08:50.000Z,8.10
2018-09-12T04:09:21.104Z,7.87
2018-09-12T04:09:52.329Z,7.17
2018-09-12T04:10:23.561Z,7.72
2018-09-12T04:10:54.707Z,8.03
2018-09-12T04:11:25.885Z,8.20
2018-09-12T04:11:57.027Z,8.63
2018-09-12T04:12:28.140Z,7.83
2018-09-12T04:12:59.305Z,8.78
2018-09-12T04:13:30.434Z,8.48
2018-09-12T04:14:01.547Z,8.50
2018-09-12T04:14:32.668Z,8.18
2018-09-12T04:15:03.787Z,8.50
2018-09-12T04:15:34.955Z,8.08
2018-09-12T04:16:06.072Z,8.30
2018-09-12T04:16:37.240Z,8.53
2018-09-12T04:17:08.382Z,9.00
2018-09-12T04:17:39.488Z,8.98
2018-09-12T04:18:10.607Z,8.38
2018-09-12T04:18:41.724Z,8.83
2018-09-12T04:19:12.900Z,8.98
2018-09-12T04:19:44.010Z,8.90
2018-09-12T04:20:15.163Z,9.18
2018-09-12T04:20:46.352Z,9.28
2018-09-12T04:21:17.528Z,8.30
2018-09-12T04:21:48.640Z,9.08
2018-09-12T04:22:19.752Z,9.00
2018-09-12T04:22:50.855Z,9.25
2018-09-12T04:23:21.977Z,8.83
2018-09-12T04:23:53.083Z,9.08
2018-09-12T04:24:24.295Z,8.75
2018-09-12T04:24:55.404Z,9.30
2018-09-12T04:25:26.577Z,8.73
2018-09-12T04:25:57.765Z,9.00
2018-09-12T04:26:28.880Z,8.63
2018-09-12T04:27:00.002Z,8.95
2018-09-12T04:27:31.120Z,8.45
2018-09-12T04:28:02.269Z,8.55
2018-09-12T04:28:33.426Z,8.50
2018-09-12T04:29:04.569Z,8.93
2018-09-12T04:29:35.724Z,8.68
2018-09-12T04:30:06.914Z,8.88
2018-09-12T04:30:38.035Z,9.30
2018-09-12T04:31:09.150Z,8.65
2018-09-12T04:31:40.364Z,9.23
2018-09-12T04:32:11.519Z,8.58
2018-09-12T04:32:42.690Z,8.45
2018-09-12T04:33:13.799Z,9.18
2018-09-12T04:33:44.982Z,8.80
2018-09-12T04:34:16.097Z,9.13
2018-09-12T04:34:47.249Z,9.28
2018-09-12T04:35:18.357Z,9.08
2018-09-12T04:35:49.464Z,8.35
2018-09-12T04:36:20.604Z,9.63
2018-09-12T04:36:51.765Z,9.30
2018-09-12T04:37:22.880Z,9.25
2018-09-12T04:37:53.996Z,8.78
2018-09-12T04:38:25.123Z,9.10
2018-09-12T04:38:56.223Z,8.35
2018-09-12T04:39:27.356Z,9.10
2018-09-12T04:39:58.502Z,8.80
2018-09-12T04:40:29.598Z,8.73
2018-09-12T04:41:00.713Z,8.45
2018-09-12T04:41:31.829Z,9.13
2018-09-12T04:42:02.985Z,8.75
2018-09-12T04:42:34.163Z,9.13
2018-09-12T04:43:05.268Z,8.60
2018-09-12T04:43:36.388Z,8.15
2018-09-12T04:44:07.548Z,8.65
2018-09-12T04:44:38.663Z,8.60
2018-09-12T04:45:09.778Z,8.78
2018-09-12T04:45:40.952Z,8.55
2018-09-12T04:46:12.186Z,8.90
2018-09-12T04:46:43.389Z,8.63
2018-09-12T04:47:14.532Z,8.65
2018-09-12T04:47:45.663Z,8.20
2018-09-12T04:48:16.890Z,8.25
2018-09-12T04:48:48.008Z,8.85
2018-09-12T04:49:19.123Z,8.90
2018-09-12T04:49:50.255Z,8.55
2018-09-12T04:50:21.440Z,9.13
2018-09-12T04:50:52.559Z,8.18
2018-09-12T04:51:23.668Z,8.95
2018-09-12T04:51:54.874Z,8.70
2018-09-12T04:52:26.106Z,8.58
2018-09-12T04:52:57.253Z,9.03
2018-09-12T04:53:28.404Z,8.65
2018-09-12T04:53:59.604Z,8.88
2018-09-12T04:54:30.744Z,8.60
2018-09-12T04:55:01.892Z,8.35
2018-09-12T04:55:33.089Z,8.30
2018-09-12T04:56:04.321Z,8.60
2018-09-12T04:56:35.471Z,8.57
2018-09-12T04:57:06.636Z,8.47
2018-09-12T04:57:37.769Z,7.87
2018-09-12T04:58:08.903Z,8.30
2018-09-12T04:58:40.007Z,8.13
2018-09-12T04:59:11.159Z,8.30
2018-09-12T04:59:42.361Z,8.73
2018-09-12T05:00:13.584Z,7.97
2018-09-12T05:00:44.755Z,8.37
2018-09-12T05:01:15.885Z,8.13
2018-09-12T05:01:46.997Z,8.30
2018-09-12T05:02:18.171Z,7.90
2018-09-12T05:02:49.301Z,8.30
2018-09-12T05:03:20.476Z,8.50
2018-09-12T05:03:51.610Z,8.60
2018-09-12T05:04:22.724Z,7.97
2018-09-12T05:04:53.837Z,7.70
2018-09-12T05:05:24.988Z,8.23
2018-09-12T05:05:56.103Z,8.80
2018-09-12T05:06:27.286Z,8.10
2018-09-12T05:06:58.462Z,7.93
2018-09-12T05:07:29.636Z,7.93
2018-09-12T05:08:00.876Z,7.77
2018-09-12T05:08:32.062Z,8.23
2018-09-12T05:09:03.255Z,8.33
2018-09-12T05:09:34.481Z,8.30
2018-09-12T05:10:05.682Z,7.90
2018-09-12T05:10:36.882Z,7.60
2018-09-12T05:11:08.022Z,8.17
2018-09-12T05:11:39.258Z,8.90
2018-09-12T05:12:10.371Z,8.07
2018-09-12T05:12:41.538Z,8.40
2018-09-12T05:13:12.723Z,8.37
2018-09-12T05:13:43.996Z,7.90
2018-09-12T05:14:15.135Z,8.27
2018-09-12T05:14:46.387Z,8.10
2018-09-12T05:15:17.556Z,8.40
2018-09-12T05:15:48.760Z,8.40
2018-09-12T05:16:19.971Z,7.90
2018-09-12T05:16:51.210Z,8.63
2018-09-12T05:17:22.346Z,8.87
2018-09-12T05:17:53.467Z,8.83
2018-09-12T05:18:24.601Z,8.37
2018-09-12T05:18:55.724Z,7.70
2018-09-12T05:19:26.922Z,7.57
2018-09-12T05:19:58.106Z,8.07
2018-09-12T05:20:29.296Z,8.27
2018-09-12T05:21:00.402Z,8.40
2018-09-12T05:21:31.527Z,8.13
2018-09-12T05:22:02.693Z,7.83
2018-09-12T05:22:33.800Z,8.47
2018-09-12T05:23:04.911Z,8.40
2018-09-12T05:23:36.025Z,7.80
2018-09-12T05:24:07.212Z,8.30
2018-09-12T05:24:38.366Z,8.03
2018-09-12T05:25:09.539Z,8.20
2018-09-12T05:25:40.663Z,8.57
2018-09-12T05:26:11.823Z,8.77
2018-09-12T05:26:42.989Z,8.50
2018-09-12T05:27:14.127Z,8.33
2018-09-12T05:27:45.294Z,8.83
2018-09-12T05:28:16.444Z,8.47
2018-09-12T05:28:47.579Z,8.50
2018-09-12T05:29:18.698Z,8.27
2018-09-12T05:29:49.821Z,8.10
2018-09-12T05:30:20.977Z,8.43
2018-09-12T05:30:52.108Z,8.27
2018-09-12T05:31:23.240Z,8.30
2018-09-12T05:31:54.354Z,8.47
2018-09-12T05:32:25.464Z,8.10
2018-09-12T05:32:56.667Z,8.20
2018-09-12T05:33:27.819Z,8.57
2018-09-12T05:33:58.971Z,9.17
2018-09-12T05:34:30.092Z,9.00
2018-09-12T05:35:01.282Z,9.20
2018-09-12T05:35:32.455Z,8.90
2018-09-12T05:36:03.686Z,8.47
2018-09-12T05:36:34.799Z,8.10
2018-09-12T05:37:05.908Z,8.70
2018-09-12T05:37:37.049Z,8.70
2018-09-12T05:38:08.199Z,8.53
2018-09-12T05:38:39.348Z,8.40
2018-09-12T05:39:10.484Z,8.13
2018-09-12T05:39:41.614Z,9.57
2018-09-12T05:40:12.747Z,8.40
2018-09-12T05:40:43.945Z,8.77
2018-09-12T05:41:15.147Z,8.33
2018-09-12T05:41:46.279Z,8.50
2018-09-12T05:42:17.393Z,7.90
2018-09-12T05:42:48.522Z,8.50
2018-09-12T05:43:19.641Z,8.10
2018-09-12T05:43:50.777Z,8.77
2018-09-12T05:44:22.721Z,8.40
2018-09-12T05:44:53.846Z,8.57
2018-09-12T05:45:25.013Z,8.50
2018-09-12T05:45:56.284Z,8.87
2018-09-12T05:46:27.419Z,8.40
2018-09-12T05:46:58.535Z,8.13
2018-09-12T05:47:29.667Z,8.30
2018-09-12T05:48:00.820Z,8.83
2018-09-12T05:48:32.077Z,7.83
2018-09-12T05:49:03.223Z,8.43
2018-09-12T05:49:34.333Z,7.27
2018-09-12T05:50:05.491Z,7.70
2018-09-12T05:50:36.598Z,9.03
2018-09-12T05:51:07.942Z,8.60
2018-09-12T05:51:39.125Z,7.53
2018-09-12T05:52:10.369Z,7.47
2018-09-12T05:52:41.605Z,8.03
2018-09-12T05:53:12.715Z,6.73
2018-09-12T05:53:43.870Z,7.20
2018-09-12T05:54:15.043Z,7.33
2018-09-12T05:54:46.205Z,6.83
2018-09-12T05:55:17.389Z,8.37
2018-09-12T05:55:48.672Z,7.67
2018-09-12T05:56:19.852Z,7.50
2018-09-12T05:56:50.961Z,8.07
2018-09-12T05:57:22.108Z,8.23
2018-09-12T05:57:53.328Z,9.63
2018-09-12T05:58:24.511Z,8.97
2018-09-12T05:58:55.655Z,7.70
2018-09-12T05:59:26.794Z,6.93
2018-09-12T05:59:57.969Z,7.13
2018-09-12T06:00:29.136Z,7.20
2018-09-12T06:01:00.428Z,7.93
2018-09-12T06:01:31.613Z,7.07
2018-09-12T06:02:02.781Z,8.57
2018-09-12T06:02:34.018Z,7.90
2018-09-12T06:03:05.220Z,7.87
2018-09-12T06:03:36.409Z,7.80
2018-09-12T06:04:07.603Z,9.40
2018-09-12T06:04:38.841Z,7.33
2018-09-12T06:05:10.030Z,8.40
2018-09-12T06:05:41.253Z,8.17
2018-09-12T06:06:12.395Z,7.77
2018-09-12T06:06:43.669Z,7.83
2018-09-12T06:07:14.841Z,8.60
2018-09-12T06:07:45.877Z,11.53
2018-09-12T06:08:17.058Z,7.30
2018-09-12T06:08:48.185Z,8.23
2018-09-12T06:09:19.353Z,8.40
2018-09-12T06:09:50.479Z,7.57
2018-09-12T06:10:21.674Z,7.90
2018-09-12T06:10:52.831Z,8.20
2018-09-12T06:11:23.958Z,8.33
2018-09-12T06:11:55.084Z,7.27
2018-09-12T06:12:26.274Z,10.00
2018-09-12T06:12:57.370Z,7.30
2018-09-12T06:13:28.564Z,8.23
2018-09-12T06:13:59.695Z,8.83
2018-09-12T06:14:30.827Z,8.77
2018-09-12T06:15:02.028Z,8.07
2018-09-12T06:15:33.185Z,7.20
2018-09-12T06:16:04.347Z,8.63
2018-09-12T06:16:35.535Z,8.60
2018-09-12T06:17:06.648Z,7.57
2018-09-12T06:17:37.771Z,7.77
2018-09-12T06:18:08.907Z,7.37
2018-09-12T06:18:40.079Z,8.10
2018-09-12T06:19:11.204Z,8.40
2018-09-12T06:19:42.133Z,7.37
2018-09-12T06:20:13.284Z,10.57
2018-09-12T06:20:44.443Z,9.90
2018-09-12T06:21:15.556Z,7.47
2018-09-12T06:21:46.958Z,8.17
2018-09-12T06:22:18.129Z,7.93
2018-09-12T06:22:49.246Z,8.40
2018-09-12T06:23:20.363Z,8.17
2018-09-12T06:23:51.532Z,7.53
2018-09-12T06:24:22.644Z,7.60
2018-09-12T06:24:53.824Z,8.57
2018-09-12T06:25:24.969Z,7.97
2018-09-12T06:25:56.140Z,7.23
2018-09-12T06:26:27.264Z,7.70
2018-09-12T06:26:58.380Z,8.20
2018-09-12T06:27:29.506Z,8.63
2018-09-12T06:28:00.720Z,8.00
2018-09-12T06:28:31.859Z,8.10
2018-09-12T06:29:03.008Z,6.90
2018-09-12T06:29:34.216Z,7.30
2018-09-12T06:30:05.392Z,9.20
2018-09-12T06:30:36.566Z,8.70
2018-09-12T06:31:07.672Z,9.17
2018-09-12T06:31:38.802Z,6.93
2018-09-12T06:32:10.058Z,7.00
2018-09-12T06:32:41.224Z,8.00
2018-09-12T06:33:12.360Z,7.60
2018-09-12T06:33:43.483Z,7.13
2018-09-12T06:34:14.645Z,7.70
2018-09-12T06:34:45.844Z,6.97
2018-09-12T06:35:17.068Z,7.77
2018-09-12T06:35:48.279Z,8.97
2018-09-12T06:36:19.480Z,8.40
2018-09-12T06:36:50.620Z,7.83
2018-09-12T06:37:21.740Z,7.53
2018-09-12T06:37:52.896Z,7.77
2018-09-12T06:38:24.155Z,7.70
2018-09-12T06:38:55.200Z,7.60
2018-09-12T06:39:26.355Z,7.43
2018-09-12T06:39:57.493Z,7.43
2018-09-12T06:40:28.629Z,8.00
2018-09-12T06:41:01.886Z,7.23
2018-09-12T06:41:33.083Z,7.53
2018-09-12T06:42:04.214Z,7.30
2018-09-12T06:42:35.347Z,7.67
2018-09-12T06:43:06.477Z,7.77
2018-09-12T06:43:37.671Z,7.33
2018-09-12T06:44:08.860Z,6.73
2018-09-12T06:44:40.003Z,7.03
2018-09-12T06:45:11.241Z,7.07
2018-09-12T06:45:42.358Z,6.87
2018-09-12T06:46:13.571Z,6.20
2018-09-12T06:46:44.766Z,6.30
2018-09-12T06:47:15.907Z,6.30
2018-09-12T06:47:47.136Z,6.30
2018-09-12T06:48:18.299Z,6.33
2018-09-12T06:48:49.400Z,6.53
2018-09-12T06:49:20.538Z,6.70
2018-09-12T06:49:51.771Z,6.60
2018-09-12T06:50:22.984Z,7.13
2018-09-12T06:50:54.096Z,7.67
2018-09-12T06:51:25.236Z,7.60
2018-09-12T06:51:56.382Z,7.47
2018-09-12T06:52:27.559Z,6.37
2018-09-12T06:52:58.680Z,7.03
2018-09-12T06:53:29.855Z,7.23
2018-09-12T06:54:01.047Z,6.43
2018-09-12T06:54:32.188Z,7.37